sensor_id;sensor_type;location;lat;lon;timestamp;pressure;altitude;pressure_sealevel;temperature;humidity
62510;BME280;48558;48.242;11.654;2023-02-16T00:01:22;97314.81;;;-0.52;100.00
62510;BME280;48558;48.242;11.654;2023-02-16T00:05:36;97319.28;;;-0.63;100.00
62510;BME280;48558;48.242;11.654;2023-02-16T00:09:48;97314.31;;;-0.58;100.00
62510;BME280;48558;48.242;11.654;2023-02-16T00:14:02;97322.59;;;-0.47;100.00
62510;BME280;48558;48.242;11.654;2023-02-16T00:18:18;97321.72;;;-0.81;100.00
62510;BME280;48558;48.242;11.654;2023-02-16T00:22:32;97307.84;;;-0.76;100.00
62510;BME280;48558;48.242;11.654;2023-02-16T00:26:47;97319.22;;;-0.93;100.00
62510;BME280;48558;48.242;11.654;2023-02-16T00:31:00;97303.50;;;-1.29;100.00
62510;BME280;48558;48.242;11.654;2023-02-16T00:35:18;97303.69;;;-1.15;100.00
62510;BME280;48558;48.242;11.654;2023-02-16T00:39:32;97301.19;;;-1.27;100.00
62510;BME280;48558;48.242;11.654;2023-02-16T00:43:45;97300.44;;;-1.24;100.00
62510;BME280;48558;48.242;11.654;2023-02-16T00:47:58;97287.34;;;-1.22;100.00
62510;BME280;48558;48.242;11.654;2023-02-16T00:52:26;97291.53;;;-1.02;100.00
62510;BME280;48558;48.242;11.654;2023-02-16T00:56:44;97291.31;;;-1.16;100.00
62510;BME280;48558;48.242;11.654;2023-02-16T01:01:00;97296.22;;;-0.99;100.00
62510;BME280;48558;48.242;11.654;2023-02-16T01:05:28;97300.00;;;-1.49;100.00
62510;BME280;48558;48.242;11.654;2023-02-16T01:09:40;97278.00;;;-1.48;100.00
62510;BME280;48558;48.242;11.654;2023-02-16T01:14:12;97283.84;;;-1.46;100.00
62510;BME280;48558;48.242;11.654;2023-02-16T01:18:24;97276.34;;;-1.75;100.00
62510;BME280;48558;48.242;11.654;2023-02-16T01:22:37;97287.34;;;-1.64;100.00
62510;BME280;48558;48.242;11.654;2023-02-16T01:26:49;97301.28;;;-1.85;100.00
62510;BME280;48558;48.242;11.654;2023-02-16T01:31:02;97292.09;;;-1.80;100.00
62510;BME280;48558;48.242;11.654;2023-02-16T01:35:30;97286.09;;;-1.70;100.00
62510;BME280;48558;48.242;11.654;2023-02-16T01:39:44;97289.88;;;-1.75;100.00
62510;BME280;48558;48.242;11.654;2023-02-16T01:44:37;97300.34;;;-1.73;100.00
62510;BME280;48558;48.242;11.654;2023-02-16T01:48:54;97281.75;;;-1.75;100.00
62510;BME280;48558;48.242;11.654;2023-02-16T01:53:21;97283.38;;;-1.70;100.00
62510;BME280;48558;48.242;11.654;2023-02-16T01:57:45;97285.69;;;-1.72;100.00
62510;BME280;48558;48.242;11.654;2023-02-16T02:02:08;97278.25;;;-1.75;100.00
62510;BME280;48558;48.242;11.654;2023-02-16T02:06:37;97285.31;;;-1.90;100.00
62510;BME280;48558;48.242;11.654;2023-02-16T02:11:05;97285.97;;;-1.96;100.00
62510;BME280;48558;48.242;11.654;2023-02-16T02:15:26;97275.63;;;-2.10;100.00
62510;BME280;48558;48.242;11.654;2023-02-16T02:19:56;97268.66;;;-2.11;100.00
62510;BME280;48558;48.242;11.654;2023-02-16T02:34:15;97266.16;;;-1.81;100.00
62510;BME280;48558;48.242;11.654;2023-02-16T02:43:08;97271.56;;;-1.81;100.00
62510;BME280;48558;48.242;11.654;2023-02-16T02:47:46;97257.41;;;-1.52;100.00
62510;BME280;48558;48.242;11.654;2023-02-16T02:51:59;97250.06;;;-1.52;100.00
62510;BME280;48558;48.242;11.654;2023-02-16T02:56:15;97250.41;;;-1.53;100.00
62510;BME280;48558;48.242;11.654;2023-02-16T03:00:54;97253.09;;;-1.76;100.00
62510;BME280;48558;48.242;11.654;2023-02-16T03:05:10;97265.69;;;-1.64;100.00
62510;BME280;48558;48.242;11.654;2023-02-16T03:09:24;97258.22;;;-1.71;100.00
62510;BME280;48558;48.242;11.654;2023-02-16T03:13:42;97260.63;;;-1.66;100.00
62510;BME280;48558;48.242;11.654;2023-02-16T03:17:58;97255.91;;;-1.50;100.00
62510;BME280;48558;48.242;11.654;2023-02-16T03:22:31;97252.75;;;-1.52;100.00
62510;BME280;48558;48.242;11.654;2023-02-16T03:27:03;97254.59;;;-1.33;100.00
62510;BME280;48558;48.242;11.654;2023-02-16T03:31:38;97256.59;;;-1.53;100.00
62510;BME280;48558;48.242;11.654;2023-02-16T03:35:51;97264.91;;;-1.65;100.00
62510;BME280;48558;48.242;11.654;2023-02-16T03:40:08;97262.81;;;-1.52;100.00
62510;BME280;48558;48.242;11.654;2023-02-16T03:44:42;97251.66;;;-1.70;100.00
62510;BME280;48558;48.242;11.654;2023-02-16T03:48:55;97248.28;;;-1.86;100.00
62510;BME280;48558;48.242;11.654;2023-02-16T03:53:07;97274.38;;;-1.97;100.00
62510;BME280;48558;48.242;11.654;2023-02-16T03:57:20;97273.63;;;-1.94;100.00
62510;BME280;48558;48.242;11.654;2023-02-16T04:01:32;97273.94;;;-2.18;100.00
62510;BME280;48558;48.242;11.654;2023-02-16T04:05:45;97286.06;;;-2.31;100.00
62510;BME280;48558;48.242;11.654;2023-02-16T04:09:58;97282.03;;;-2.37;100.00
62510;BME280;48558;48.242;11.654;2023-02-16T04:14:10;97282.84;;;-2.17;100.00
62510;BME280;48558;48.242;11.654;2023-02-16T04:18:22;97272.28;;;-2.03;100.00
62510;BME280;48558;48.242;11.654;2023-02-16T04:22:35;97263.25;;;-2.11;100.00
62510;BME280;48558;48.242;11.654;2023-02-16T04:26:48;97278.56;;;-2.19;100.00
62510;BME280;48558;48.242;11.654;2023-02-16T04:31:01;97275.22;;;-2.31;100.00
62510;BME280;48558;48.242;11.654;2023-02-16T04:35:14;97284.03;;;-2.34;100.00
62510;BME280;48558;48.242;11.654;2023-02-16T04:39:27;97273.28;;;-2.11;100.00
62510;BME280;48558;48.242;11.654;2023-02-16T04:43:40;97276.34;;;-2.51;100.00
62510;BME280;48558;48.242;11.654;2023-02-16T04:47:52;97280.22;;;-2.33;100.00
62510;BME280;48558;48.242;11.654;2023-02-16T04:52:05;97275.72;;;-2.26;100.00
62510;BME280;48558;48.242;11.654;2023-02-16T04:56:17;97262.09;;;-2.48;100.00
62510;BME280;48558;48.242;11.654;2023-02-16T05:00:40;97265.25;;;-2.27;100.00
62510;BME280;48558;48.242;11.654;2023-02-16T05:04:52;97264.72;;;-2.33;100.00
62510;BME280;48558;48.242;11.654;2023-02-16T05:09:05;97271.63;;;-2.54;100.00
62510;BME280;48558;48.242;11.654;2023-02-16T05:13:18;97268.50;;;-2.56;100.00
62510;BME280;48558;48.242;11.654;2023-02-16T05:17:52;97267.09;;;-2.85;100.00
62510;BME280;48558;48.242;11.654;2023-02-16T05:22:05;97264.25;;;-2.73;100.00
62510;BME280;48558;48.242;11.654;2023-02-16T05:26:18;97267.22;;;-2.78;100.00
62510;BME280;48558;48.242;11.654;2023-02-16T05:30:32;97273.22;;;-3.04;100.00
62510;BME280;48558;48.242;11.654;2023-02-16T05:34:45;97282.38;;;-2.93;100.00
62510;BME280;48558;48.242;11.654;2023-02-16T05:38:58;97280.63;;;-3.01;100.00
62510;BME280;48558;48.242;11.654;2023-02-16T05:43:11;97287.59;;;-3.00;100.00
62510;BME280;48558;48.242;11.654;2023-02-16T05:47:23;97291.53;;;-2.97;100.00
62510;BME280;48558;48.242;11.654;2023-02-16T05:51:36;97293.69;;;-3.03;100.00
62510;BME280;48558;48.242;11.654;2023-02-16T05:55:59;97284.31;;;-3.09;100.00
62510;BME280;48558;48.242;11.654;2023-02-16T06:00:12;97299.97;;;-2.83;100.00
62510;BME280;48558;48.242;11.654;2023-02-16T06:04:25;97301.09;;;-2.84;100.00
62510;BME280;48558;48.242;11.654;2023-02-16T06:08:38;97307.31;;;-2.83;100.00
62510;BME280;48558;48.242;11.654;2023-02-16T06:12:50;97302.97;;;-2.69;100.00
62510;BME280;48558;48.242;11.654;2023-02-16T06:17:03;97306.91;;;-2.66;100.00
62510;BME280;48558;48.242;11.654;2023-02-16T06:21:15;97304.09;;;-2.54;100.00
62510;BME280;48558;48.242;11.654;2023-02-16T06:25:28;97310.41;;;-2.66;100.00
62510;BME280;48558;48.242;11.654;2023-02-16T06:29:40;97309.03;;;-2.91;100.00
62510;BME280;48558;48.242;11.654;2023-02-16T06:33:53;97328.34;;;-2.93;100.00
62510;BME280;48558;48.242;11.654;2023-02-16T06:38:07;97325.38;;;-3.03;100.00
62510;BME280;48558;48.242;11.654;2023-02-16T06:42:20;97336.34;;;-2.96;100.00
62510;BME280;48558;48.242;11.654;2023-02-16T06:46:32;97334.09;;;-2.78;100.00
62510;BME280;48558;48.242;11.654;2023-02-16T06:50:45;97337.97;;;-2.60;100.00
62510;BME280;48558;48.242;11.654;2023-02-16T06:54:58;97334.19;;;-2.40;100.00
62510;BME280;48558;48.242;11.654;2023-02-16T06:59:11;97345.88;;;-2.17;100.00
62510;BME280;48558;48.242;11.654;2023-02-16T07:03:24;97341.78;;;-2.11;100.00
62510;BME280;48558;48.242;11.654;2023-02-16T07:07:37;97347.41;;;-2.00;100.00
62510;BME280;48558;48.242;11.654;2023-02-16T07:11:50;97342.66;;;-1.88;100.00
62510;BME280;48558;48.242;11.654;2023-02-16T07:16:03;97343.91;;;-1.82;100.00
62510;BME280;48558;48.242;11.654;2023-02-16T07:20:17;97345.63;;;-1.74;100.00
62510;BME280;48558;48.242;11.654;2023-02-16T07:24:39;97331.50;;;-1.64;100.00
62510;BME280;48558;48.242;11.654;2023-02-16T07:28:52;97352.03;;;-1.63;100.00
62510;BME280;48558;48.242;11.654;2023-02-16T07:33:04;97340.88;;;-1.38;100.00
62510;BME280;48558;48.242;11.654;2023-02-16T07:37:20;97353.72;;;-1.13;100.00
62510;BME280;48558;48.242;11.654;2023-02-16T07:41:33;97346.94;;;-1.03;100.00
62510;BME280;48558;48.242;11.654;2023-02-16T07:45:45;97340.53;;;-1.14;100.00
62510;BME280;48558;48.242;11.654;2023-02-16T07:49:58;97348.00;;;-0.85;100.00
62510;BME280;48558;48.242;11.654;2023-02-16T07:54:10;97349.50;;;-0.65;100.00
62510;BME280;48558;48.242;11.654;2023-02-16T07:58:23;97343.66;;;-0.41;100.00
62510;BME280;48558;48.242;11.654;2023-02-16T08:02:39;97359.72;;;-0.29;100.00
62510;BME280;48558;48.242;11.654;2023-02-16T08:06:52;97350.72;;;-0.07;100.00
62510;BME280;48558;48.242;11.654;2023-02-16T08:11:09;97362.84;;;0.29;100.00
62510;BME280;48558;48.242;11.654;2023-02-16T08:15:25;97360.13;;;0.29;100.00
62510;BME280;48558;48.242;11.654;2023-02-16T08:19:38;97362.47;;;0.64;100.00
62510;BME280;48558;48.242;11.654;2023-02-16T08:23:56;97373.75;;;0.99;100.00
62510;BME280;48558;48.242;11.654;2023-02-16T08:28:11;97370.66;;;1.04;100.00
62510;BME280;48558;48.242;11.654;2023-02-16T08:32:25;97378.81;;;1.48;100.00
62510;BME280;48558;48.242;11.654;2023-02-16T08:36:46;97379.00;;;1.69;100.00
62510;BME280;48558;48.242;11.654;2023-02-16T08:41:02;97370.53;;;1.85;100.00
62510;BME280;48558;48.242;11.654;2023-02-16T08:45:24;97352.00;;;2.11;100.00
62510;BME280;48558;48.242;11.654;2023-02-16T08:49:38;97369.63;;;2.28;100.00
62510;BME280;48558;48.242;11.654;2023-02-16T08:53:50;97355.94;;;2.21;100.00
62510;BME280;48558;48.242;11.654;2023-02-16T08:58:04;97356.88;;;2.53;100.00
62510;BME280;48558;48.242;11.654;2023-02-16T09:02:16;97355.72;;;2.65;100.00
62510;BME280;48558;48.242;11.654;2023-02-16T09:06:29;97349.56;;;2.89;100.00
62510;BME280;48558;48.242;11.654;2023-02-16T09:10:42;97374.94;;;3.04;100.00
62510;BME280;48558;48.242;11.654;2023-02-16T09:14:55;97368.31;;;3.08;100.00
62510;BME280;48558;48.242;11.654;2023-02-16T09:19:08;97367.91;;;3.17;100.00
62510;BME280;48558;48.242;11.654;2023-02-16T09:23:20;97364.03;;;3.53;100.00
62510;BME280;48558;48.242;11.654;2023-02-16T09:27:33;97353.91;;;3.57;100.00
62510;BME280;48558;48.242;11.654;2023-02-16T09:31:45;97359.31;;;3.99;100.00
62510;BME280;48558;48.242;11.654;2023-02-16T09:36:10;97367.94;;;3.98;100.00
62510;BME280;48558;48.242;11.654;2023-02-16T09:40:23;97359.19;;;4.42;100.00
62510;BME280;48558;48.242;11.654;2023-02-16T09:49:25;97366.00;;;5.50;100.00
62510;BME280;48558;48.242;11.654;2023-02-16T09:53:45;97348.94;;;6.21;100.00
62510;BME280;48558;48.242;11.654;2023-02-16T09:58:21;97355.78;;;6.73;100.00
62510;BME280;48558;48.242;11.654;2023-02-16T10:12:05;97342.50;;;7.98;100.00
62510;BME280;48558;48.242;11.654;2023-02-16T10:16:27;97342.88;;;7.96;100.00
62510;BME280;48558;48.242;11.654;2023-02-16T10:20:44;97342.34;;;8.68;100.00
62510;BME280;48558;48.242;11.654;2023-02-16T10:25:07;97346.91;;;8.94;100.00
62510;BME280;48558;48.242;11.654;2023-02-16T10:29:25;97343.88;;;9.24;100.00
62510;BME280;48558;48.242;11.654;2023-02-16T10:33:54;97348.47;;;8.95;100.00
62510;BME280;48558;48.242;11.654;2023-02-16T10:38:39;97339.06;;;9.28;100.00
62510;BME280;48558;48.242;11.654;2023-02-16T10:47:58;97335.91;;;9.78;100.00
62510;BME280;48558;48.242;11.654;2023-02-16T10:52:10;97333.06;;;9.65;100.00
62510;BME280;48558;48.242;11.654;2023-02-16T11:00:53;97328.44;;;10.23;100.00
62510;BME280;48558;48.242;11.654;2023-02-16T11:05:28;97316.03;;;9.99;100.00
62510;BME280;48558;48.242;11.654;2023-02-16T11:09:44;97315.00;;;10.79;94.07
62510;BME280;48558;48.242;11.654;2023-02-16T11:14:01;97303.56;;;11.31;83.20
62510;BME280;48558;48.242;11.654;2023-02-16T11:28:00;97291.28;;;11.19;65.05
62510;BME280;48558;48.242;11.654;2023-02-16T11:32:16;97281.88;;;11.04;66.09
62510;BME280;48558;48.242;11.654;2023-02-16T11:40:51;97269.81;;;11.95;61.12
62510;BME280;48558;48.242;11.654;2023-02-16T11:45:06;97269.13;;;12.04;57.41
62510;BME280;48558;48.242;11.654;2023-02-16T11:49:37;97267.53;;;12.15;54.55
62510;BME280;48558;48.242;11.654;2023-02-16T11:54:02;97257.75;;;12.45;56.85
62510;BME280;48558;48.242;11.654;2023-02-16T11:58:25;97254.13;;;12.36;57.46
62510;BME280;48558;48.242;11.654;2023-02-16T12:03:00;97246.03;;;12.41;55.30
62510;BME280;48558;48.242;11.654;2023-02-16T12:16:47;97225.56;;;12.48;50.11
62510;BME280;48558;48.242;11.654;2023-02-16T12:21:20;97223.78;;;12.93;46.45
62510;BME280;48558;48.242;11.654;2023-02-16T12:30:51;97213.84;;;12.44;44.72
62510;BME280;48558;48.242;11.654;2023-02-16T12:45:00;97206.06;;;13.22;45.32
62510;BME280;48558;48.242;11.654;2023-02-16T12:49:51;97199.69;;;13.61;44.43
62510;BME280;48558;48.242;11.654;2023-02-16T12:54:23;97187.25;;;13.26;44.42
62510;BME280;48558;48.242;11.654;2023-02-16T12:58:46;97187.63;;;13.73;43.40
62510;BME280;48558;48.242;11.654;2023-02-16T13:07:51;97180.84;;;13.47;42.08
62510;BME280;48558;48.242;11.654;2023-02-16T13:12:23;97163.66;;;13.30;41.94
62510;BME280;48558;48.242;11.654;2023-02-16T13:16:49;97167.97;;;13.22;43.05
62510;BME280;48558;48.242;11.654;2023-02-16T13:40:10;97166.63;;;14.17;42.61
62510;BME280;48558;48.242;11.654;2023-02-16T13:44:39;97159.81;;;14.18;41.44
62510;BME280;48558;48.242;11.654;2023-02-16T13:48:55;97152.56;;;14.21;42.28
62510;BME280;48558;48.242;11.654;2023-02-16T13:53:16;97155.84;;;13.83;43.02
62510;BME280;48558;48.242;11.654;2023-02-16T14:02:02;97152.75;;;14.35;43.12
62510;BME280;48558;48.242;11.654;2023-02-16T14:06:36;97148.59;;;13.77;43.57
62510;BME280;48558;48.242;11.654;2023-02-16T14:15:18;97140.38;;;14.18;43.04
62510;BME280;48558;48.242;11.654;2023-02-16T14:19:31;97143.44;;;15.13;42.40
62510;BME280;48558;48.242;11.654;2023-02-16T14:23:56;97141.44;;;15.14;42.72
62510;BME280;48558;48.242;11.654;2023-02-16T14:32:45;97127.22;;;14.28;41.71
62510;BME280;48558;48.242;11.654;2023-02-16T14:41:33;97132.53;;;13.44;43.71
62510;BME280;48558;48.242;11.654;2023-02-16T14:56:09;97133.75;;;12.76;44.03
62510;BME280;48558;48.242;11.654;2023-02-16T15:01:33;97133.41;;;12.65;43.49
62510;BME280;48558;48.242;11.654;2023-02-16T15:05:30;97128.56;;;12.48;44.72
62510;BME280;48558;48.242;11.654;2023-02-16T15:09:44;97118.94;;;12.40;45.32
62510;BME280;48558;48.242;11.654;2023-02-16T15:14:04;97114.06;;;12.44;43.70
62510;BME280;48558;48.242;11.654;2023-02-16T15:18:22;97111.19;;;12.26;44.77
62510;BME280;48558;48.242;11.654;2023-02-16T15:22:48;97115.00;;;12.19;44.30
62510;BME280;48558;48.242;11.654;2023-02-16T15:27:01;97115.75;;;11.89;44.78
62510;BME280;48558;48.242;11.654;2023-02-16T15:31:16;97105.78;;;11.57;45.27
62510;BME280;48558;48.242;11.654;2023-02-16T15:35:40;97120.28;;;11.61;45.00
62510;BME280;48558;48.242;11.654;2023-02-16T15:40:18;97128.13;;;11.63;45.45
62510;BME280;48558;48.242;11.654;2023-02-16T15:44:38;97125.19;;;11.44;46.72
62510;BME280;48558;48.242;11.654;2023-02-16T15:48:51;97131.13;;;11.34;47.40
62510;BME280;48558;48.242;11.654;2023-02-16T15:53:27;97125.94;;;11.23;48.33
62510;BME280;48558;48.242;11.654;2023-02-16T15:57:45;97121.34;;;11.08;48.85
62510;BME280;48558;48.242;11.654;2023-02-16T16:06:15;97131.56;;;10.73;50.38
62510;BME280;48558;48.242;11.654;2023-02-16T16:10:31;97129.69;;;10.45;51.38
62510;BME280;48558;48.242;11.654;2023-02-16T16:19:12;97137.75;;;10.27;52.54
62510;BME280;48558;48.242;11.654;2023-02-16T16:23:27;97129.94;;;9.96;54.07
62510;BME280;48558;48.242;11.654;2023-02-16T16:27:46;97133.63;;;9.20;58.78
62510;BME280;48558;48.242;11.654;2023-02-16T16:32:00;97136.66;;;8.93;62.13
62510;BME280;48558;48.242;11.654;2023-02-16T16:36:13;97142.56;;;8.59;63.40
62510;BME280;48558;48.242;11.654;2023-02-16T16:40:34;97138.03;;;9.01;59.78
62510;BME280;48558;48.242;11.654;2023-02-16T16:45:04;97149.31;;;8.58;64.51
62510;BME280;48558;48.242;11.654;2023-02-16T16:49:28;97140.75;;;8.17;69.17
62510;BME280;48558;48.242;11.654;2023-02-16T16:53:52;97140.59;;;7.69;78.51
62510;BME280;48558;48.242;11.654;2023-02-16T16:58:06;97157.19;;;7.42;88.34
62510;BME280;48558;48.242;11.654;2023-02-16T17:02:21;97157.13;;;7.03;98.34
62510;BME280;48558;48.242;11.654;2023-02-16T17:06:34;97157.78;;;6.87;100.00
62510;BME280;48558;48.242;11.654;2023-02-16T17:10:46;97154.94;;;6.44;100.00
62510;BME280;48558;48.242;11.654;2023-02-16T17:15:00;97154.41;;;6.26;100.00
62510;BME280;48558;48.242;11.654;2023-02-16T17:19:14;97155.56;;;5.99;100.00
62510;BME280;48558;48.242;11.654;2023-02-16T17:23:28;97144.91;;;5.70;100.00
62510;BME280;48558;48.242;11.654;2023-02-16T17:27:40;97161.91;;;5.58;100.00
62510;BME280;48558;48.242;11.654;2023-02-16T17:31:53;97164.66;;;5.58;100.00
62510;BME280;48558;48.242;11.654;2023-02-16T17:36:07;97157.69;;;5.50;100.00
62510;BME280;48558;48.242;11.654;2023-02-16T17:40:22;97157.81;;;5.36;100.00
62510;BME280;48558;48.242;11.654;2023-02-16T17:44:36;97164.59;;;5.25;100.00
62510;BME280;48558;48.242;11.654;2023-02-16T17:48:51;97172.56;;;5.12;100.00
62510;BME280;48558;48.242;11.654;2023-02-16T17:53:11;97162.88;;;5.04;100.00
62510;BME280;48558;48.242;11.654;2023-02-16T17:57:26;97162.09;;;5.00;100.00
62510;BME280;48558;48.242;11.654;2023-02-16T18:01:42;97177.94;;;5.23;100.00
62510;BME280;48558;48.242;11.654;2023-02-16T18:05:54;97167.06;;;5.12;100.00
62510;BME280;48558;48.242;11.654;2023-02-16T18:10:14;97169.81;;;5.16;100.00
62510;BME280;48558;48.242;11.654;2023-02-16T18:14:28;97167.38;;;5.21;100.00
62510;BME280;48558;48.242;11.654;2023-02-16T18:18:41;97172.72;;;5.35;100.00
62510;BME280;48558;48.242;11.654;2023-02-16T18:22:53;97159.41;;;5.34;100.00
62510;BME280;48558;48.242;11.654;2023-02-16T18:27:05;97160.19;;;5.34;100.00
62510;BME280;48558;48.242;11.654;2023-02-16T18:31:18;97159.41;;;5.34;100.00
62510;BME280;48558;48.242;11.654;2023-02-16T18:35:31;97150.81;;;5.32;100.00
62510;BME280;48558;48.242;11.654;2023-02-16T18:39:44;97182.97;;;5.31;100.00
62510;BME280;48558;48.242;11.654;2023-02-16T18:43:57;97173.91;;;5.34;100.00
62510;BME280;48558;48.242;11.654;2023-02-16T18:48:10;97179.00;;;5.36;100.00
62510;BME280;48558;48.242;11.654;2023-02-16T18:52:23;97184.78;;;5.41;100.00
62510;BME280;48558;48.242;11.654;2023-02-16T18:56:36;97185.09;;;5.50;100.00
62510;BME280;48558;48.242;11.654;2023-02-16T19:00:49;97191.78;;;5.49;100.00
62510;BME280;48558;48.242;11.654;2023-02-16T19:05:02;97194.81;;;5.58;100.00
62510;BME280;48558;48.242;11.654;2023-02-16T19:09:15;97192.81;;;5.62;100.00
62510;BME280;48558;48.242;11.654;2023-02-16T19:13:28;97188.50;;;5.61;100.00
62510;BME280;48558;48.242;11.654;2023-02-16T19:17:41;97193.25;;;5.57;100.00
62510;BME280;48558;48.242;11.654;2023-02-16T19:21:53;97191.31;;;5.54;100.00
62510;BME280;48558;48.242;11.654;2023-02-16T19:26:08;97199.44;;;5.65;100.00
62510;BME280;48558;48.242;11.654;2023-02-16T19:30:22;97186.59;;;5.55;100.00
62510;BME280;48558;48.242;11.654;2023-02-16T19:34:35;97181.13;;;5.55;100.00
62510;BME280;48558;48.242;11.654;2023-02-16T19:38:48;97193.31;;;5.50;100.00
62510;BME280;48558;48.242;11.654;2023-02-16T19:43:00;97179.28;;;5.45;100.00
62510;BME280;48558;48.242;11.654;2023-02-16T19:47:13;97182.78;;;5.45;100.00
62510;BME280;48558;48.242;11.654;2023-02-16T19:51:26;97185.47;;;5.52;100.00
62510;BME280;48558;48.242;11.654;2023-02-16T19:55:40;97188.78;;;5.70;100.00
62510;BME280;48558;48.242;11.654;2023-02-16T19:59:53;97181.56;;;5.87;100.00
62510;BME280;48558;48.242;11.654;2023-02-16T20:04:06;97188.16;;;6.23;100.00
62510;BME280;48558;48.242;11.654;2023-02-16T20:08:18;97184.22;;;6.24;100.00
62510;BME280;48558;48.242;11.654;2023-02-16T20:12:41;97176.00;;;6.51;91.37
62510;BME280;48558;48.242;11.654;2023-02-16T20:16:53;97178.88;;;6.44;95.67
62510;BME280;48558;48.242;11.654;2023-02-16T20:21:09;97184.53;;;6.57;93.99
62510;BME280;48558;48.242;11.654;2023-02-16T20:25:30;97187.59;;;7.12;84.52
62510;BME280;48558;48.242;11.654;2023-02-16T20:29:42;97185.13;;;6.94;85.65
62510;BME280;48558;48.242;11.654;2023-02-16T20:33:55;97180.88;;;7.36;83.71
62510;BME280;48558;48.242;11.654;2023-02-16T20:38:08;97184.47;;;7.33;83.34
62510;BME280;48558;48.242;11.654;2023-02-16T20:42:20;97175.53;;;7.49;81.00
62510;BME280;48558;48.242;11.654;2023-02-16T20:46:43;97169.25;;;7.91;76.10
62510;BME280;48558;48.242;11.654;2023-02-16T20:51:04;97169.78;;;7.82;76.90
62510;BME280;48558;48.242;11.654;2023-02-16T20:55:18;97164.66;;;7.84;77.98
62510;BME280;48558;48.242;11.654;2023-02-16T20:59:31;97162.03;;;7.97;76.80
62510;BME280;48558;48.242;11.654;2023-02-16T21:03:43;97168.50;;;7.87;76.76
62510;BME280;48558;48.242;11.654;2023-02-16T21:08:06;97165.56;;;7.97;76.52
62510;BME280;48558;48.242;11.654;2023-02-16T21:12:18;97154.84;;;7.83;79.22
62510;BME280;48558;48.242;11.654;2023-02-16T21:16:31;97160.13;;;7.94;77.09
62510;BME280;48558;48.242;11.654;2023-02-16T21:20:44;97160.13;;;7.94;77.19
62510;BME280;48558;48.242;11.654;2023-02-16T21:24:56;97157.94;;;7.85;79.09
62510;BME280;48558;48.242;11.654;2023-02-16T21:29:09;97162.75;;;7.81;79.54
62510;BME280;48558;48.242;11.654;2023-02-16T21:33:22;97160.19;;;7.90;78.65
62510;BME280;48558;48.242;11.654;2023-02-16T21:37:34;97158.59;;;7.93;78.50
62510;BME280;48558;48.242;11.654;2023-02-16T21:41:47;97147.84;;;7.79;79.66
62510;BME280;48558;48.242;11.654;2023-02-16T21:46:00;97151.03;;;7.77;80.64
62510;BME280;48558;48.242;11.654;2023-02-16T21:50:22;97145.91;;;7.60;82.36
62510;BME280;48558;48.242;11.654;2023-02-16T21:54:35;97147.72;;;7.66;83.01
62510;BME280;48558;48.242;11.654;2023-02-16T21:59:13;97147.16;;;7.75;83.02
62510;BME280;48558;48.242;11.654;2023-02-16T22:03:27;97144.19;;;7.66;84.85
62510;BME280;48558;48.242;11.654;2023-02-16T22:07:39;97136.22;;;7.71;86.04
62510;BME280;48558;48.242;11.654;2023-02-16T22:11:52;97125.56;;;7.54;87.52
62510;BME280;48558;48.242;11.654;2023-02-16T22:16:17;97139.94;;;7.81;85.42
62510;BME280;48558;48.242;11.654;2023-02-16T22:20:31;97137.34;;;7.74;85.08
62510;BME280;48558;48.242;11.654;2023-02-16T22:24:52;97136.16;;;7.75;86.60
62510;BME280;48558;48.242;11.654;2023-02-16T22:29:06;97142.44;;;7.75;86.90
62510;BME280;48558;48.242;11.654;2023-02-16T22:33:19;97137.13;;;7.65;87.24
62510;BME280;48558;48.242;11.654;2023-02-16T22:37:32;97134.16;;;7.56;88.08
62510;BME280;48558;48.242;11.654;2023-02-16T22:41:47;97128.25;;;7.57;87.57
62510;BME280;48558;48.242;11.654;2023-02-16T22:46:27;97137.00;;;7.72;86.79
62510;BME280;48558;48.242;11.654;2023-02-16T22:50:41;97138.97;;;7.71;86.50
62510;BME280;48558;48.242;11.654;2023-02-16T22:54:53;97133.63;;;7.64;87.56
62510;BME280;48558;48.242;11.654;2023-02-16T22:59:06;97136.91;;;7.56;88.02
62510;BME280;48558;48.242;11.654;2023-02-16T23:03:18;97132.19;;;7.56;87.07
62510;BME280;48558;48.242;11.654;2023-02-16T23:07:33;97130.25;;;7.34;89.84
62510;BME280;48558;48.242;11.654;2023-02-16T23:11:47;97117.03;;;7.48;87.68
62510;BME280;48558;48.242;11.654;2023-02-16T23:16:08;97129.53;;;7.53;87.09
62510;BME280;48558;48.242;11.654;2023-02-16T23:20:32;97121.69;;;7.51;87.89
62510;BME280;48558;48.242;11.654;2023-02-16T23:24:44;97114.28;;;7.48;87.91
62510;BME280;48558;48.242;11.654;2023-02-16T23:29:17;97126.34;;;7.74;85.13
62510;BME280;48558;48.242;11.654;2023-02-16T23:33:30;97120.81;;;7.74;84.05
62510;BME280;48558;48.242;11.654;2023-02-16T23:37:53;97119.34;;;7.89;81.65
62510;BME280;48558;48.242;11.654;2023-02-16T23:42:06;97116.16;;;7.90;80.97
62510;BME280;48558;48.242;11.654;2023-02-16T23:46:29;97115.03;;;7.88;81.04
62510;BME280;48558;48.242;11.654;2023-02-16T23:50:41;97121.59;;;7.94;79.36
62510;BME280;48558;48.242;11.654;2023-02-16T23:54:54;97125.06;;;7.98;80.14
62510;BME280;48558;48.242;11.654;2023-02-16T23:59:06;97117.84;;;8.04;79.68
